Istanbul, Turki

04:29 AM EET on Desember 21, 2014 (GMT +0200)
Balmumcu | Change Station
CLOSE
Current Station
Personal Weather Stations
Location: Istanbul,
Elevation: 350 ft
Nearby Weather Stations

Elev 350 ft 41.06 °N, 29.02 °E | Updated 46 minutes ago

Patches of Fog
Kabut Sepotong-Sepotong
49.8 °F
Feels Like 50 °F
N
2.0
Angin Variable Angin from Dari Selatan ke Baratdaya
Gusts 2.0 mph

Siang Ini
High -- | Low -- °F
--% Chance of Precip.
Yesterday
High -- | Low -- °F
Precip. -- Inch
7:25 AM 4:39 PM
Waning Crescent, 1% visible
Tekanan 30.06 Inch
Jarak Pandang 0.4 Mil
Awan Mendung Tidak Merata 100 ft
Angin Dingin 50 °F
Titik Embun 47 °F
Kelembaban 89%
Rainfall 0.00 Inch
Snow Depth Not available.
UV 0.0 out of 12
Pollen Not available.
Air Quality Not available.
Flu Activity Not available.
SPECI LTBU 210213Z 19003KT 0600 R05/0600N R23/0650D BCFG SCT001 07/07 Q1018 RMK RWY23 21005KT

More Conditions Fewer Conditions

Tekanan 30.06 Inch
Jarak Pandang 0.4 Mil
Awan Mendung Tidak Merata 100 ft
Angin Dingin 50 °F
Titik Embun 47 °F
Kelembaban 89%
Rainfall 0.00 Inch
Snow Depth Not available.
UV 0.0 out of 12
Pollen Not available.
Air Quality Not available.
Flu Activity Not available.
SPECI LTBU 210213Z 19003KT 0600 R05/0600N R23/0650D BCFG SCT001 07/07 Q1018 RMK RWY23 21005KT

More Conditions Fewer Conditions

10-Day Weather Forecast

Almanac

Astronomi

Dec. 21, 2014 Rise Set
Actual Time
Civil Twilight
Nautical Twilight
Astronomical Twilight
Moon
Length Of Visible Light
Lama Satu Hari
Tomorrow will be .
, % of the Moon is Illuminated

Today's Extremes

Country Highs Country Lows

Community

WunderPhotos

Upload Photos

1,779,348 photos uploaded!

WunderBlogs® & News

Nearby

Air Quality

  Air Quality AQ Index Pollutant
Not available.

Snow Depth

Station Depth Elevation

Earthquake Activity

City Distance Mag. Time & Date
Minimum magnitude displayed is 2.5.

Coastal Water Temperatures

Lokasi Temperatur

Nearby Weather Stations